Time;durP1;ratioP1;P1;durP2;ratioP2;P2;SDS_P1;SDS_P2;PMS_P1;PMS_P2;Temp;Humidity;BMP_temperature;BMP_pressure;BME280_temperature;BME280_humidity;BME280_pressure;Samples;Min_cycle;Max_cycle;Signal;HPM_P1;HPM_P2
2023/08/27 00:01:02;;;;;;;4.47;2.38;;;;;;;19.70;37.98;100587.97;5031506;28;20087;-79
2023/08/27 00:03:30;;;;;;;3.88;2.40;;;;;;;19.69;37.73;100594.56;5020073;28;20124;-80
2023/08/27 00:05:58;;;;;;;4.80;2.20;;;;;;;19.65;37.88;100585.75;5000816;28;20057;-79
2023/08/27 00:08:26;;;;;;;5.07;2.42;;;;;;;19.61;37.77;100593.66;5032670;28;20124;-80
2023/08/27 00:10:57;;;;;;;3.85;2.53;;;;;;;19.62;37.98;100598.13;5031933;28;20498;-79
2023/08/27 00:13:26;;;;;;;3.58;2.15;;;;;;;19.58;37.87;100607.94;5033843;28;20099;-79
2023/08/27 00:15:55;;;;;;;3.67;2.25;;;;;;;19.58;38.13;100607.06;5023571;28;20037;-79
2023/08/27 00:18:23;;;;;;;4.10;2.25;;;;;;;19.56;38.21;100600.84;5032504;28;20049;-79
2023/08/27 00:20:51;;;;;;;4.22;2.22;;;;;;;19.54;38.26;100597.44;5040456;28;20064;-80
2023/08/27 00:23:19;;;;;;;3.72;2.30;;;;;;;19.53;38.06;100595.72;5029996;28;20057;-80
2023/08/27 00:25:47;;;;;;;3.47;2.33;;;;;;;19.50;38.68;100605.28;5028247;28;20046;-79
2023/08/27 00:28:15;;;;;;;4.28;1.90;;;;;;;19.45;38.39;100571.72;5045995;28;20061;-81
2023/08/27 00:30:44;;;;;;;4.30;2.25;;;;;;;19.43;38.26;100559.97;5011728;28;20044;-79
2023/08/27 00:33:14;;;;;;;3.67;2.15;;;;;;;19.40;38.48;100557.56;5011329;28;20144;-79
2023/08/27 00:35:43;;;;;;;4.00;2.45;;;;;;;19.37;38.32;100558.00;5028030;28;20041;-80
2023/08/27 00:38:11;;;;;;;4.22;2.55;;;;;;;19.31;38.32;100539.34;5029695;28;20083;-79
2023/08/27 00:40:40;;;;;;;4.47;2.40;;;;;;;19.29;38.56;100549.81;5032278;28;20037;-79
2023/08/27 00:43:08;;;;;;;4.40;2.38;;;;;;;19.26;38.83;100552.97;5037425;28;20052;-80
2023/08/27 00:45:36;;;;;;;4.10;2.17;;;;;;;19.23;39.08;100540.34;5027804;28;20040;-79
2023/08/27 00:48:04;;;;;;;4.20;2.35;;;;;;;19.23;38.58;100528.38;5028278;28;20038;-79
2023/08/27 00:50:34;;;;;;;4.45;2.40;;;;;;;19.20;38.78;100518.56;5024907;28;20051;-79
2023/08/27 00:53:02;;;;;;;5.22;2.42;;;;;;;19.17;39.06;100510.59;5031037;28;20103;-79
2023/08/27 00:55:30;;;;;;;4.50;2.30;;;;;;;19.17;38.69;100515.28;5028590;28;20049;-80
2023/08/27 00:57:58;;;;;;;4.30;2.17;;;;;;;19.14;39.25;100519.31;5027782;28;20509;-78
2023/08/27 01:00:27;;;;;;;3.55;2.13;;;;;;;19.12;38.97;100515.88;5021382;28;20038;-79
2023/08/27 01:02:56;;;;;;;4.00;2.45;;;;;;;19.10;39.24;100506.91;5027572;28;20038;-79
2023/08/27 01:05:25;;;;;;;3.53;2.25;;;;;;;19.07;39.11;100509.19;5042206;28;20046;-79
2023/08/27 01:08:00;;;;;;;4.22;2.25;;;;;;;19.09;39.55;100520.97;5023300;28;20602;-79
2023/08/27 01:10:40;;;;;;;3.42;2.03;;;;;;;19.07;39.33;100526.69;5028645;28;20045;-81
2023/08/27 01:13:13;;;;;;;4.53;2.50;;;;;;;19.04;39.29;100529.03;5018844;28;20046;-80
2023/08/27 01:15:42;;;;;;;3.42;2.10;;;;;;;18.99;38.81;100526.84;5024298;28;20037;-81
2023/08/27 01:18:11;;;;;;;3.30;2.10;;;;;;;18.97;39.22;100540.03;5035300;28;20053;-81
2023/08/27 01:20:45;;;;;;;4.25;2.40;;;;;;;18.94;39.27;100540.44;5032018;28;20497;-81
2023/08/27 01:23:16;;;;;;;3.38;2.03;;;;;;;18.90;39.49;100537.19;5035052;28;20520;-81
2023/08/27 01:25:48;;;;;;;4.35;2.10;;;;;;;18.88;39.07;100553.16;5037806;28;20065;-80
2023/08/27 01:28:25;;;;;;;3.10;1.87;;;;;;;18.88;39.68;100557.88;5045173;28;20525;-80
2023/08/27 01:31:00;;;;;;;3.58;1.80;;;;;;;18.88;39.79;100557.88;5036581;28;20091;-80
2023/08/27 01:33:31;;;;;;;3.83;2.10;;;;;;;18.84;39.73;100556.53;5039444;28;20489;-79
2023/08/27 01:35:59;;;;;;;4.13;2.22;;;;;;;18.86;39.66;100557.22;5030952;28;20069;-79
2023/08/27 01:38:29;;;;;;;3.50;1.90;;;;;;;18.87;39.48;100550.63;5034695;28;20404;-78
2023/08/27 01:40:57;;;;;;;3.30;1.95;;;;;;;18.84;39.14;100560.16;5037574;28;20432;-79
2023/08/27 01:43:25;;;;;;;3.00;1.88;;;;;;;18.85;39.42;100561.88;5036171;28;20114;-79
2023/08/27 01:45:53;;;;;;;3.75;1.67;;;;;;;18.86;39.49;100555.28;5034640;28;20036;-80
2023/08/27 01:48:22;;;;;;;6.13;2.40;;;;;;;18.87;39.69;100553.38;5033519;28;20048;-79
2023/08/27 01:50:49;;;;;;;3.05;1.70;;;;;;;18.87;39.67;100543.16;5034411;28;20091;-79
2023/08/27 01:53:17;;;;;;;2.45;1.58;;;;;;;18.88;39.18;100544.84;5032223;28;20042;-79
2023/08/27 01:55:47;;;;;;;3.15;1.85;;;;;;;18.90;39.71;100536.34;5036100;28;20145;-78
2023/08/27 01:58:15;;;;;;;2.72;1.88;;;;;;;18.87;39.01;100531.19;5031245;28;20057;-79
2023/08/27 02:00:43;;;;;;;3.60;1.90;;;;;;;18.87;39.57;100534.84;5022623;28;20088;-80
2023/08/27 02:03:12;;;;;;;2.70;1.70;;;;;;;18.88;39.54;100535.69;5032778;28;20451;-80
2023/08/27 02:05:40;;;;;;;3.50;1.70;;;;;;;18.89;39.30;100537.38;5029626;28;20041;-80
2023/08/27 02:08:07;;;;;;;3.63;1.73;;;;;;;18.88;39.16;100532.91;5026745;28;20148;-79
2023/08/27 02:10:37;;;;;;;3.70;2.00;;;;;;;18.87;39.36;100532.06;5027527;28;20159;-80
2023/08/27 02:13:06;;;;;;;3.42;1.92;;;;;;;18.89;39.28;100535.47;5035234;28;20041;-79
2023/08/27 02:15:34;;;;;;;3.63;2.08;;;;;;;18.87;39.81;100533.97;5027694;28;20090;-79
2023/08/27 02:18:04;;;;;;;3.25;2.10;;;;;;;18.86;39.57;100526.72;5035978;28;20037;-79
2023/08/27 02:20:33;;;;;;;3.97;1.85;;;;;;;18.86;39.57;100527.56;5034019;28;20054;-79
2023/08/27 02:23:00;;;;;;;4.30;2.10;;;;;;;18.85;39.68;100516.66;5037956;28;20061;-79
2023/08/27 02:25:29;;;;;;;3.50;1.88;;;;;;;18.84;39.36;100509.41;5037125;28;20041;-78
2023/08/27 02:27:57;;;;;;;4.45;1.90;;;;;;;18.80;39.50;100500.59;5035863;28;20456;-79
2023/08/27 02:30:27;;;;;;;3.95;1.90;;;;;;;18.80;39.47;100503.38;5022964;28;20050;-79
2023/08/27 02:32:55;;;;;;;3.47;2.00;;;;;;;18.77;39.73;100494.63;5028479;28;20128;-80
2023/08/27 02:35:23;;;;;;;3.03;1.80;;;;;;;18.76;39.79;100492.88;5010985;28;20113;-80
2023/08/27 02:37:51;;;;;;;3.25;1.83;;;;;;;18.74;39.44;100493.09;5028151;28;20037;-79
2023/08/27 02:40:19;;;;;;;3.63;1.80;;;;;;;18.73;39.72;100487.72;5036449;28;20080;-80
2023/08/27 02:42:48;;;;;;;2.63;1.65;;;;;;;18.72;39.45;100483.28;5034070;28;20091;-79
2023/08/27 02:45:16;;;;;;;3.17;2.00;;;;;;;18.70;39.36;100494.53;5028799;28;20052;-79
2023/08/27 02:47:46;;;;;;;3.67;1.90;;;;;;;18.71;39.69;100489.88;5033537;28;20045;-80
2023/08/27 02:50:16;;;;;;;2.58;1.77;;;;;;;18.67;39.60;100486.59;5032634;28;20049;-79
2023/08/27 02:52:43;;;;;;;3.53;1.98;;;;;;;18.66;39.44;100484.88;5028755;28;20136;-80
2023/08/27 02:55:11;;;;;;;3.83;2.00;;;;;;;18.63;39.64;100481.66;5011874;28;20061;-79
2023/08/27 02:57:39;;;;;;;3.30;1.75;;;;;;;18.63;39.66;100482.53;5026932;28;20067;-79
2023/08/27 03:00:08;;;;;;;3.00;1.90;;;;;;;18.64;39.84;100475.91;5047807;28;20072;-81
2023/08/27 03:02:36;;;;;;;3.72;2.03;;;;;;;18.60;39.61;100470.97;5034536;28;20137;-79
2023/08/27 03:05:06;;;;;;;2.90;1.85;;;;;;;18.59;39.36;100480.31;5027322;28;20079;-81
2023/08/27 03:07:34;;;;;;;3.03;1.63;;;;;;;18.52;39.41;100477.50;5047967;28;20308;-80
2023/08/27 03:10:02;;;;;;;3.92;1.77;;;;;;;18.47;39.38;100478.03;5033266;28;20033;-81
2023/08/27 03:12:29;;;;;;;2.60;1.75;;;;;;;18.43;39.46;100473.09;5036460;28;20506;-80
2023/08/27 03:14:58;;;;;;;3.03;1.77;;;;;;;18.38;39.89;100475.59;5037685;28;20060;-82
2023/08/27 03:17:26;;;;;;;3.95;2.03;;;;;;;18.32;39.92;100471.66;5055392;28;20041;-81
2023/08/27 03:19:54;;;;;;;3.05;1.75;;;;;;;18.27;39.86;100479.72;5047820;28;20084;-80
2023/08/27 03:22:25;;;;;;;3.67;1.60;;;;;;;18.26;39.92;100485.44;5048043;28;20083;-80
2023/08/27 03:24:54;;;;;;;3.65;1.83;;;;;;;18.21;40.13;100477.72;5065726;28;20047;-79
2023/08/27 03:27:21;;;;;;;2.78;1.83;;;;;;;18.18;40.00;100480.88;5033932;28;20041;-80
2023/08/27 03:29:50;;;;;;;3.17;1.80;;;;;;;18.15;39.79;100473.78;5032333;28;20048;-80
2023/08/27 03:32:17;;;;;;;3.35;1.70;;;;;;;18.13;39.83;100461.22;5030320;28;20052;-81
2023/08/27 03:34:45;;;;;;;3.13;1.73;;;;;;;18.13;40.06;100470.38;5050306;28;20075;-79
2023/08/27 03:37:13;;;;;;;2.95;1.90;;;;;;;18.10;40.38;100465.22;5041939;28;20036;-80
2023/08/27 03:39:42;;;;;;;3.13;1.58;;;;;;;18.10;40.34;100472.66;5027339;28;20559;-79
2023/08/27 03:42:10;;;;;;;3.25;1.63;;;;;;;18.08;40.16;100472.84;5035506;28;20124;-81
2023/08/27 03:44:38;;;;;;;3.00;1.63;;;;;;;18.05;40.02;100464.94;5034462;28;20037;-81
2023/08/27 03:47:06;;;;;;;4.45;1.60;;;;;;;18.05;40.27;100461.31;5028075;28;20133;-81
2023/08/27 03:49:36;;;;;;;2.80;1.70;;;;;;;17.99;40.05;100462.94;5049598;28;20064;-79
2023/08/27 03:52:05;;;;;;;2.75;1.60;;;;;;;18.00;40.19;100459.13;5034133;28;20077;-80
2023/08/27 03:54:33;;;;;;;3.72;1.63;;;;;;;17.99;40.40;100456.53;5031179;28;20114;-81
2023/08/27 03:57:03;;;;;;;2.50;1.50;;;;;;;18.00;40.42;100461.88;5023533;28;20072;-80
2023/08/27 03:59:31;;;;;;;2.88;1.50;;;;;;;17.96;40.63;100455.03;5026738;28;20053;-79
2023/08/27 04:01:59;;;;;;;3.28;1.70;;;;;;;17.96;40.62;100460.56;5021353;28;20139;-79
2023/08/27 04:04:27;;;;;;;2.38;1.40;;;;;;;17.95;40.39;100456.06;5029562;28;20064;-80
2023/08/27 04:06:56;;;;;;;3.22;1.65;;;;;;;17.95;40.66;100458.00;5028035;28;20118;-80
2023/08/27 04:09:24;;;;;;;2.78;1.50;;;;;;;17.94;40.51;100468.19;5029205;28;20037;-79
2023/08/27 04:11:52;;;;;;;6.50;1.77;;;;;;;17.92;40.78;100466.66;5031162;28;20051;-80
2023/08/27 04:14:21;;;;;;;2.72;1.70;;;;;;;17.91;40.72;100465.81;5031937;28;20239;-81
2023/08/27 04:16:49;;;;;;;3.20;1.48;;;;;;;17.90;40.84;100474.28;5033757;28;20048;-80
2023/08/27 04:19:17;;;;;;;2.83;1.50;;;;;;;17.88;40.86;100470.88;5034718;28;20550;-80
2023/08/27 04:21:45;;;;;;;2.15;1.58;;;;;;;17.89;40.63;100483.69;5033520;28;20163;-79
2023/08/27 04:24:13;;;;;;;3.40;1.92;;;;;;;17.89;40.88;100478.13;5035005;28;20063;-80
2023/08/27 04:26:44;;;;;;;2.72;1.60;;;;;;;17.91;40.54;100476.00;5029545;28;20130;-79
2023/08/27 04:29:12;;;;;;;3.13;1.70;;;;;;;17.93;40.79;100482.22;5051633;28;20127;-79
2023/08/27 04:31:43;;;;;;;2.58;1.52;;;;;;;17.95;40.90;100478.22;5032739;28;20140;-79
2023/08/27 04:34:11;;;;;;;3.00;1.70;;;;;;;17.97;40.92;100486.34;5025344;28;20049;-79
2023/08/27 04:36:39;;;;;;;2.42;1.52;;;;;;;17.98;40.56;100479.72;5032587;28;20041;-79
2023/08/27 04:39:08;;;;;;;2.55;1.48;;;;;;;18.00;41.08;100481.25;5029007;28;20103;-79
2023/08/27 04:41:36;;;;;;;2.40;1.60;;;;;;;18.01;40.94;100468.28;5030826;28;20116;-79
2023/08/27 04:44:05;;;;;;;2.38;1.48;;;;;;;18.06;41.00;100476.88;5032422;28;20048;-79
2023/08/27 04:46:34;;;;;;;2.85;1.60;;;;;;;18.07;41.37;100482.22;5032645;28;20049;-80
2023/08/27 04:49:03;;;;;;;2.80;1.63;;;;;;;18.10;41.36;100501.22;5024131;28;20037;-79
2023/08/27 04:51:31;;;;;;;2.67;1.60;;;;;;;18.11;41.00;100508.47;5026909;28;20043;-80
2023/08/27 04:53:59;;;;;;;3.35;1.60;;;;;;;18.12;41.54;100503.81;5053859;28;20152;-79
2023/08/27 04:56:27;;;;;;;3.25;1.70;;;;;;;18.13;41.31;100500.84;5035669;28;20344;-80
2023/08/27 04:58:55;;;;;;;2.67;1.60;;;;;;;18.14;41.50;100504.47;5039841;28;20045;-79
2023/08/27 05:01:23;;;;;;;3.28;1.60;;;;;;;18.15;41.47;100508.94;5030642;28;20040;-79
2023/08/27 05:03:51;;;;;;;2.83;1.90;;;;;;;18.17;41.30;100506.00;5027710;28;20048;-79
2023/08/27 05:06:20;;;;;;;2.65;1.63;;;;;;;18.19;41.78;100495.59;5047394;28;20037;-79
2023/08/27 05:08:50;;;;;;;2.97;1.70;;;;;;;18.17;41.56;100495.75;5036951;28;20041;-78
2023/08/27 05:11:18;;;;;;;3.03;1.58;;;;;;;18.18;41.74;100496.63;5030939;28;20505;-79
2023/08/27 05:13:47;;;;;;;2.95;1.55;;;;;;;18.17;41.76;100494.91;5029589;28;20505;-79
2023/08/27 05:16:17;;;;;;;3.38;1.88;;;;;;;18.18;42.17;100502.16;5030016;28;20047;-78
2023/08/27 05:18:45;;;;;;;3.25;1.73;;;;;;;18.19;42.23;100512.19;5024391;28;20049;-79
2023/08/27 05:21:13;;;;;;;3.42;1.70;;;;;;;18.20;41.99;100511.16;5029961;28;20099;-78
2023/08/27 05:23:43;;;;;;;3.38;1.67;;;;;;;18.21;41.99;100493.47;5034966;28;20161;-80
2023/08/27 05:26:11;;;;;;;3.70;1.85;;;;;;;18.20;42.32;100491.75;5037003;28;20142;-78
2023/08/27 05:28:39;;;;;;;3.10;1.80;;;;;;;18.20;42.56;100497.31;5035060;28;20049;-78
2023/08/27 05:31:07;;;;;;;3.30;1.98;;;;;;;18.19;42.42;100496.44;5035232;28;20288;-79
2023/08/27 05:33:33;;;;;;;3.03;1.70;;;;;;;18.19;42.81;100484.50;5028120;28;20047;-77
2023/08/27 05:36:01;;;;;;;3.35;2.00;;;;;;;18.19;43.01;100484.50;5030984;28;20033;-79
2023/08/27 05:38:29;;;;;;;4.00;1.90;;;;;;;18.20;43.12;100486.22;5050352;28;20048;-78
2023/08/27 05:40:58;;;;;;;3.20;1.83;;;;;;;18.20;43.04;100492.63;5052070;28;20059;-78
2023/08/27 05:43:27;;;;;;;3.30;1.80;;;;;;;18.19;43.29;100492.81;5029938;28;20133;-79
2023/08/27 05:45:55;;;;;;;3.38;1.52;;;;;;;18.19;42.89;100487.28;5034856;28;20094;-78
2023/08/27 05:48:23;;;;;;;3.20;2.00;;;;;;;18.19;43.04;100495.59;5031287;28;20043;-78
2023/08/27 05:50:51;;;;;;;3.72;1.60;;;;;;;18.18;43.50;100491.94;5040454;28;20036;-78
2023/08/27 05:53:19;;;;;;;3.10;1.83;;;;;;;18.20;43.16;100500.06;5049942;28;20167;-78
2023/08/27 05:55:47;;;;;;;2.22;1.50;;;;;;;18.19;43.70;100498.34;5036790;28;20109;-79
2023/08/27 05:58:16;;;;;;;4.00;1.85;;;;;;;18.21;43.66;100499.88;5037754;28;20053;-77
2023/08/27 06:00:44;;;;;;;2.63;1.83;;;;;;;18.20;43.72;100505.63;5028870;28;20598;-78
2023/08/27 06:03:12;;;;;;;2.38;1.65;;;;;;;18.19;43.50;100501.97;5046382;28;20057;-79
2023/08/27 06:05:41;;;;;;;2.58;1.73;;;;;;;18.21;44.07;100496.25;5029872;28;20511;-78
2023/08/27 06:08:09;;;;;;;2.90;1.70;;;;;;;18.20;43.98;100503.69;5029015;28;20053;-77
2023/08/27 06:10:37;;;;;;;3.50;1.65;;;;;;;18.21;43.43;100512.88;5023087;28;20067;-77
2023/08/27 06:13:05;;;;;;;2.75;1.90;;;;;;;18.21;43.47;100519.28;5029298;28;20510;-78
2023/08/27 06:15:35;;;;;;;2.63;1.58;;;;;;;18.24;43.81;100520.78;5025353;28;20060;-79
2023/08/27 06:18:03;;;;;;;2.85;1.67;;;;;;;18.22;43.84;100523.75;5026459;28;20094;-79
2023/08/27 06:20:33;;;;;;;4.82;1.90;;;;;;;18.23;43.62;100521.81;5033297;28;20168;-79
2023/08/27 06:23:02;;;;;;;3.28;1.70;;;;;;;18.22;43.84;100518.22;5025289;28;20383;-79
2023/08/27 06:25:33;;;;;;;2.63;1.38;;;;;;;18.24;44.07;100515.25;5044286;28;20051;-79
2023/08/27 06:28:03;;;;;;;2.70;1.55;;;;;;;18.24;43.87;100504.16;5035507;28;20048;-79
2023/08/27 06:30:31;;;;;;;2.35;1.52;;;;;;;18.23;43.70;100505.19;5024536;28;20048;-78
2023/08/27 06:33:04;;;;;;;3.42;1.33;;;;;;;18.24;43.74;100507.78;5030641;28;20112;-78
2023/08/27 06:35:33;;;;;;;2.97;1.60;;;;;;;18.22;43.75;100503.50;5027889;28;20403;-78
2023/08/27 06:38:02;;;;;;;2.83;1.38;;;;;;;18.22;44.31;100503.50;5033969;28;20040;-80
2023/08/27 06:40:30;;;;;;;3.58;1.67;;;;;;;18.22;43.76;100514.59;5032796;28;20064;-79
2023/08/27 06:42:59;;;;;;;2.88;1.63;;;;;;;18.20;44.26;100514.78;5025162;28;20552;-79
2023/08/27 06:45:33;;;;;;;2.42;1.60;;;;;;;18.21;44.46;100515.63;5027785;28;20033;-80
2023/08/27 06:48:04;;;;;;;3.20;1.58;;;;;;;18.21;44.59;100523.94;5029233;28;20784;-79
2023/08/27 06:50:32;;;;;;;2.72;1.40;;;;;;;18.20;44.58;100519.47;5029021;28;20654;-79
2023/08/27 06:53:00;;;;;;;3.28;1.52;;;;;;;18.21;44.41;100527.59;5031352;28;20029;-79
2023/08/27 06:55:31;;;;;;;1.98;1.20;;;;;;;18.21;44.28;100537.81;5030378;28;20048;-78
2023/08/27 06:57:59;;;;;;;2.58;1.40;;;;;;;18.20;44.09;100527.78;5030465;28;20044;-78
2023/08/27 07:00:28;;;;;;;2.47;1.48;;;;;;;18.20;44.33;100523.09;5025566;28;20115;-78
2023/08/27 07:02:59;;;;;;;2.25;1.38;;;;;;;18.21;44.26;100519.28;5051067;28;20047;-78
2023/08/27 07:05:30;;;;;;;2.50;1.30;;;;;;;18.22;44.75;100523.75;5021297;28;20045;-78
2023/08/27 07:07:58;;;;;;;2.90;1.20;;;;;;;18.21;44.77;100521.19;5029725;28;20045;-79
2023/08/27 07:10:26;;;;;;;3.03;1.50;;;;;;;18.23;45.03;100528.22;5027585;28;20041;-79
2023/08/27 07:12:54;;;;;;;3.33;1.40;;;;;;;18.24;45.07;100529.94;5030070;28;20033;-78
2023/08/27 07:15:22;;;;;;;2.38;1.50;;;;;;;18.29;45.45;100532.16;5030704;28;20079;-78
2023/08/27 07:17:50;;;;;;;2.15;1.27;;;;;;;18.32;45.08;100528.97;5027480;28;20041;-79
2023/08/27 07:20:18;;;;;;;3.13;1.50;;;;;;;18.35;45.53;100528.59;5030064;28;20049;-80
2023/08/27 07:22:48;;;;;;;3.70;1.40;;;;;;;18.40;45.62;100532.50;5038218;28;20411;-79
2023/08/27 07:25:16;;;;;;;3.33;1.50;;;;;;;18.42;45.37;100530.41;5032725;28;20056;-80
2023/08/27 07:27:46;;;;;;;2.55;1.42;;;;;;;18.43;45.19;100525.72;5032592;28;20228;-80
2023/08/27 07:30:15;;;;;;;2.90;1.70;;;;;;;18.47;45.31;100525.13;5026217;28;20033;-78
2023/08/27 07:32:43;;;;;;;3.40;1.90;;;;;;;18.51;45.65;100522.88;5032061;28;20042;-80
2023/08/27 07:35:11;;;;;;;3.28;1.80;;;;;;;18.55;45.37;100528.91;5039269;28;20045;-80
2023/08/27 07:37:40;;;;;;;3.85;1.65;;;;;;;18.59;45.84;100527.44;5035517;28;20665;-80
2023/08/27 07:40:11;;;;;;;2.75;1.70;;;;;;;18.66;45.80;100525.59;5040924;28;20041;-81
2023/08/27 07:42:39;;;;;;;3.65;1.80;;;;;;;18.67;45.40;100522.66;5034933;28;20055;-80
2023/08/27 07:45:08;;;;;;;3.45;1.80;;;;;;;18.73;45.05;100532.94;5039893;28;20037;-78
2023/08/27 07:47:37;;;;;;;3.10;2.08;;;;;;;18.77;45.13;100530.66;5036014;28;20049;-79
2023/08/27 07:50:06;;;;;;;3.13;1.90;;;;;;;18.82;45.17;100523.47;5030825;28;20458;-78
2023/08/27 07:52:35;;;;;;;3.70;1.90;;;;;;;18.86;45.54;100522.03;5029347;28;20153;-80
2023/08/27 07:55:04;;;;;;;2.90;1.73;;;;;;;18.90;45.25;100517.78;5034757;28;20044;-79
2023/08/27 07:57:33;;;;;;;2.40;1.63;;;;;;;18.95;45.19;100522.75;5030386;28;20041;-80
2023/08/27 08:00:01;;;;;;;3.38;1.60;;;;;;;18.98;45.34;100530.66;5026438;28;20064;-80
2023/08/27 08:02:40;;;;;;;2.67;1.80;;;;;;;19.00;45.15;100533.25;5051547;28;20063;-79
2023/08/27 08:05:09;;;;;;;3.35;1.92;;;;;;;19.04;44.75;100527.13;5029668;28;20057;-80
2023/08/27 08:07:38;;;;;;;2.88;1.70;;;;;;;19.07;44.79;100523.94;5058282;28;20064;-78
2023/08/27 08:10:06;;;;;;;3.88;1.60;;;;;;;19.10;44.73;100540.19;5041203;28;20197;-79
2023/08/27 08:12:36;;;;;;;2.40;1.70;;;;;;;19.12;44.49;100535.31;5025406;28;20563;-79
2023/08/27 08:15:04;;;;;;;2.80;1.75;;;;;;;19.13;44.60;100545.31;5027949;28;20040;-80
2023/08/27 08:17:32;;;;;;;4.60;2.05;;;;;;;19.13;44.48;100544.50;5029996;28;20072;-81
2023/08/27 08:20:12;;;;;;;2.50;1.50;;;;;;;19.11;44.37;100553.00;5029296;28;20056;-79
2023/08/27 08:22:40;;;;;;;2.70;1.60;;;;;;;19.12;43.98;100549.19;5049282;28;20623;-79
2023/08/27 08:25:09;;;;;;;2.85;1.65;;;;;;;19.11;44.41;100547.47;5051775;28;20041;-79
2023/08/27 08:27:38;;;;;;;2.22;1.50;;;;;;;19.14;44.78;100546.19;5036774;28;20061;-80
2023/08/27 08:30:07;;;;;;;2.70;1.40;;;;;;;19.15;44.50;100547.91;5058860;28;20045;-79
2023/08/27 08:32:35;;;;;;;4.53;1.85;;;;;;;19.14;44.50;100544.25;5030104;28;20037;-78
2023/08/27 08:35:03;;;;;;;3.28;1.60;;;;;;;19.16;44.34;100542.16;5044834;28;20044;-78
2023/08/27 08:37:31;;;;;;;3.30;1.40;;;;;;;19.17;43.78;100546.66;5033077;28;20042;-80
2023/08/27 08:39:59;;;;;;;2.13;1.00;;;;;;;19.19;43.81;100552.00;5050638;28;20065;-79
2023/08/27 08:42:32;;;;;;;2.35;1.20;;;;;;;19.22;43.57;100552.50;5029752;28;20041;-80
2023/08/27 08:45:11;;;;;;;2.25;1.30;;;;;;;19.24;43.79;100547.59;5035898;28;20060;-79
2023/08/27 08:47:39;;;;;;;2.45;1.27;;;;;;;19.22;43.64;100549.72;5030728;28;20095;-79
2023/08/27 08:50:09;;;;;;;1.67;1.10;;;;;;;19.24;43.63;100543.97;5032268;28;20505;-79
2023/08/27 08:52:39;;;;;;;2.15;1.17;;;;;;;19.24;43.58;100542.06;5031174;28;20673;-80
2023/08/27 08:55:09;;;;;;;3.03;1.30;;;;;;;19.24;43.71;100546.75;5032590;28;20048;-79
2023/08/27 08:57:43;;;;;;;2.03;1.10;;;;;;;19.25;43.91;100548.47;5032269;28;20053;-80
2023/08/27 09:00:14;;;;;;;1.77;1.20;;;;;;;19.24;43.44;100535.66;5049609;28;20417;-79
2023/08/27 09:02:43;;;;;;;1.63;1.10;;;;;;;19.25;43.23;100535.47;5031594;28;20079;-80
2023/08/27 09:05:12;;;;;;;2.33;1.23;;;;;;;19.25;43.08;100542.91;5033179;28;20459;-80
2023/08/27 09:07:42;;;;;;;2.05;1.20;;;;;;;19.26;43.43;100548.28;5031085;28;20091;-80
2023/08/27 09:10:11;;;;;;;3.75;1.40;;;;;;;19.27;43.65;100550.00;5044849;28;20041;-80
2023/08/27 09:12:41;;;;;;;2.63;1.38;;;;;;;19.28;43.61;100550.84;5032548;28;20053;-79
2023/08/27 09:15:09;;;;;;;2.60;1.40;;;;;;;19.28;43.82;100556.41;5036751;28;20049;-80
2023/08/27 09:17:39;;;;;;;2.67;1.50;;;;;;;19.30;43.65;100551.50;5032200;28;20045;-79
2023/08/27 09:20:08;;;;;;;2.80;1.30;;;;;;;19.31;43.23;100552.34;5035111;28;20056;-79
2023/08/27 09:22:37;;;;;;;3.05;1.30;;;;;;;19.31;43.36;100542.13;5050065;28;20061;-79
2023/08/27 09:25:07;;;;;;;2.17;1.20;;;;;;;19.32;43.42;100542.97;5029679;28;20072;-81
2023/08/27 09:27:35;;;;;;;3.05;1.25;;;;;;;19.36;43.39;100541.53;5016030;28;20480;-82
2023/08/27 09:30:04;;;;;;;2.53;1.40;;;;;;;19.38;43.27;100543.03;5022710;28;20053;-81
2023/08/27 09:32:32;;;;;;;2.30;1.42;;;;;;;19.38;43.32;100542.19;5047156;28;20049;-82
2023/08/27 09:35:03;;;;;;;2.45;1.50;;;;;;;19.40;43.33;100534.50;5035125;28;20051;-80
2023/08/27 09:37:39;;;;;;;2.53;1.25;;;;;;;19.42;42.93;100529.63;5047503;28;20247;-81
2023/08/27 09:40:08;;;;;;;2.75;1.60;;;;;;;19.40;43.12;100527.03;5029711;28;20124;-79
2023/08/27 09:42:36;;;;;;;2.55;1.40;;;;;;;19.42;43.24;100526.84;5029181;28;20509;-79
2023/08/27 09:45:05;;;;;;;2.78;1.38;;;;;;;19.44;43.14;100520.06;5046755;28;20037;-79
2023/08/27 09:47:35;;;;;;;3.65;1.60;;;;;;;19.48;43.19;100526.03;5028272;28;20068;-79
2023/08/27 09:50:07;;;;;;;3.20;1.60;;;;;;;19.51;42.67;100512.63;5025839;28;20045;-79
2023/08/27 09:52:35;;;;;;;2.60;1.30;;;;;;;19.50;42.72;100505.38;5035692;28;20247;-79
2023/08/27 09:55:05;;;;;;;2.53;1.45;;;;;;;19.55;42.76;100507.53;5052305;28;20037;-80
2023/08/27 09:57:33;;;;;;;4.90;1.92;;;;;;;19.57;42.98;100514.59;5030746;28;20064;-82
2023/08/27 10:00:08;;;;;;;3.35;1.67;;;;;;;19.59;43.02;100501.38;5034632;28;20051;-80
2023/08/27 10:02:43;;;;;;;2.97;1.42;;;;;;;19.64;42.77;100504.41;5053891;28;20041;-78
2023/08/27 10:05:13;;;;;;;2.65;1.50;;;;;;;19.67;43.13;100496.72;5029398;28;20495;-79
2023/08/27 10:07:56;;;;;;;2.58;1.30;;;;;;;19.69;42.66;100489.94;5035968;28;20148;-81
2023/08/27 10:10:25;;;;;;;2.30;1.25;;;;;;;19.70;42.96;100496.34;5033026;28;20121;-79
2023/08/27 10:12:54;;;;;;;2.35;1.20;;;;;;;19.75;42.36;100491.03;5027768;28;20037;-80
2023/08/27 10:15:23;;;;;;;2.40;1.30;;;;;;;19.80;42.38;100494.88;5039710;28;20056;-79
2023/08/27 10:17:53;;;;;;;1.98;1.15;;;;;;;19.83;42.11;100491.72;5037442;28;20104;-80
2023/08/27 10:20:23;;;;;;;1.73;1.13;;;;;;;19.91;41.71;100486.03;5034865;28;20052;-79
2023/08/27 10:22:51;;;;;;;2.05;1.08;;;;;;;19.94;41.68;100474.53;5041622;28;20049;-80
2023/08/27 10:25:19;;;;;;;2.03;1.13;;;;;;;20.04;41.75;100488.00;5065920;28;20032;-80
2023/08/27 10:27:49;;;;;;;2.08;0.95;;;;;;;20.12;41.13;100478.69;5025165;28;20064;-80
2023/08/27 10:30:18;;;;;;;2.15;1.20;;;;;;;20.19;41.13;100471.22;5034965;28;20140;-81
2023/08/27 10:32:46;;;;;;;2.53;1.35;;;;;;;20.27;40.73;100471.06;5049290;28;20040;-80
2023/08/27 10:35:15;;;;;;;1.88;1.00;;;;;;;20.37;40.80;100471.50;5023162;28;20071;-79
2023/08/27 10:38:16;;;;;;;1.98;1.15;;;;;;;20.45;40.46;100471.31;5025274;28;20095;-82
2023/08/27 10:41:17;;;;;;;2.28;1.20;;;;;;;20.53;40.27;100468.34;5034290;28;20550;-81
2023/08/27 10:43:46;;;;;;;3.10;1.10;;;;;;;20.60;40.69;100472.06;5035695;28;20045;-81
2023/08/27 10:46:16;;;;;;;2.65;1.20;;;;;;;20.71;39.98;100476.13;5034732;28;20048;-81
2023/08/27 10:48:49;;;;;;;1.90;1.00;;;;;;;20.79;39.36;100478.72;5035482;28;20515;-80
2023/08/27 10:51:18;;;;;;;2.38;1.20;;;;;;;20.81;39.64;100475.72;5054928;28;20053;-81
2023/08/27 10:53:58;;;;;;;2.80;1.30;;;;;;;20.88;38.71;100471.88;5034272;28;20304;-81
2023/08/27 10:56:29;;;;;;;2.50;1.13;;;;;;;20.89;39.22;100470.81;5031515;28;20050;-83
2023/08/27 10:58:59;;;;;;;1.90;1.02;;;;;;;20.93;39.23;100474.06;5053956;28;20087;-81
2023/08/27 11:01:27;;;;;;;1.55;1.15;;;;;;;20.97;38.82;100465.06;5034605;28;20576;-81
2023/08/27 11:04:00;;;;;;;2.35;1.05;;;;;;;21.02;39.14;100467.22;5034871;28;20049;-81
2023/08/27 11:06:40;;;;;;;2.25;1.23;;;;;;;21.08;37.86;100464.44;5036275;28;20101;-82
2023/08/27 11:09:18;;;;;;;1.70;1.00;;;;;;;21.11;37.92;100461.22;5034604;28;20055;-82
2023/08/27 11:11:52;;;;;;;1.48;0.77;;;;;;;21.14;38.22;100451.59;5038569;28;20049;-82
2023/08/27 11:14:22;;;;;;;2.05;1.00;;;;;;;21.18;38.37;100454.81;5043001;28;20093;-82
2023/08/27 11:16:55;;;;;;;1.45;1.00;;;;;;;21.22;38.04;100445.81;5037248;28;20103;-82
2023/08/27 11:19:29;;;;;;;3.72;1.20;;;;;;;21.30;37.68;100461.47;5032819;28;20131;-82
2023/08/27 11:22:06;;;;;;;3.30;1.35;;;;;;;21.35;37.02;100458.91;5030978;28;20030;-83
2023/08/27 11:24:38;;;;;;;3.45;1.08;;;;;;;21.35;37.54;100459.78;5027663;28;20041;-81
2023/08/27 11:27:07;;;;;;;2.47;1.10;;;;;;;21.41;37.42;100458.06;5028410;28;20033;-81
2023/08/27 11:29:38;;;;;;;2.08;1.23;;;;;;;21.44;37.46;100460.38;5050164;28;20044;-82
2023/08/27 11:32:08;;;;;;;1.85;1.00;;;;;;;21.50;37.22;100471.53;5037193;28;20049;-81
2023/08/27 11:34:36;;;;;;;3.17;1.23;;;;;;;21.56;37.03;100463.38;5035533;28;20060;-81